Time;durP1;ratioP1;P1;durP2;ratioP2;P2;SDS_P1;SDS_P2;PMS_P1;PMS_P2;Temp;Humidity;BMP_temperature;BMP_pressure;BME280_temperature;BME280_humidity;BME280_pressure;Samples;Min_cycle;Max_cycle;Signal;HPM_P1;HPM_P2
2022/08/25 00:00:14;;;;;;;8.75;4.18;;;21.20;99.90;;;;;;7394688;19;20010;-80
2022/08/25 00:02:40;;;;;;;5.30;4.05;;;21.20;99.90;;;;;;7393778;19;20006;-80
2022/08/25 00:05:06;;;;;;;5.47;4.03;;;21.20;99.90;;;;;;7392606;19;20083;-80
2022/08/25 00:07:32;;;;;;;7.75;3.70;;;21.10;99.90;;;;;;7394032;19;20027;-80
2022/08/25 00:09:58;;;;;;;5.60;3.83;;;21.10;99.90;;;;;;7394516;19;20341;-79
2022/08/25 00:12:25;;;;;;;5.28;3.70;;;21.00;99.90;;;;;;7394685;19;20013;-80
2022/08/25 00:14:50;;;;;;;5.80;3.65;;;21.00;99.90;;;;;;7394152;19;20059;-80
2022/08/25 00:17:16;;;;;;;8.40;4.20;;;20.90;99.90;;;;;;7392620;19;20386;-80
2022/08/25 00:19:42;;;;;;;7.50;4.05;;;20.90;99.90;;;;;;7392254;19;20011;-80
2022/08/25 00:22:08;;;;;;;7.60;3.65;;;20.80;99.90;;;;;;7391937;19;20550;-80
2022/08/25 00:24:35;;;;;;;6.65;4.20;;;20.80;99.90;;;;;;7392165;19;20363;-79
2022/08/25 00:27:01;;;;;;;7.25;4.22;;;20.80;99.90;;;;;;7393319;19;20501;-80
2022/08/25 00:29:30;;;;;;;8.55;4.13;;;20.80;99.90;;;;;;7393408;19;20088;-80
2022/08/25 00:31:56;;;;;;;8.73;4.35;;;20.80;99.90;;;;;;7393410;19;20022;-80
2022/08/25 00:34:28;;;;;;;7.90;4.47;;;20.70;99.90;;;;;;7393184;19;20092;-80
2022/08/25 00:36:54;;;;;;;7.47;4.10;;;20.70;99.90;;;;;;7393253;19;20026;-80
2022/08/25 00:39:22;;;;;;;7.32;4.07;;;20.70;99.90;;;;;;7393182;19;20484;-80
2022/08/25 00:41:50;;;;;;;7.32;3.80;;;20.60;99.90;;;;;;7391772;19;20010;-79
2022/08/25 00:44:18;;;;;;;7.22;3.70;;;20.60;99.90;;;;;;7391460;19;20471;-80
2022/08/25 00:46:48;;;;;;;5.60;3.63;;;20.60;99.90;;;;;;7391456;19;20026;-80
2022/08/25 00:49:37;;;;;;;4.90;3.40;;;20.60;99.90;;;;;;7392440;19;20010;-80
2022/08/25 00:52:19;;;;;;;7.18;3.80;;;20.50;99.90;;;;;;7392842;19;20494;-80
2022/08/25 00:54:52;;;;;;;6.25;3.83;;;20.60;99.90;;;;;;7391177;19;20011;-80
2022/08/25 00:57:23;;;;;;;7.70;4.03;;;20.60;99.90;;;;;;7392642;19;20014;-80
2022/08/25 00:59:50;;;;;;;7.15;4.20;;;20.50;99.90;;;;;;7392625;19;20014;-79
2022/08/25 01:02:16;;;;;;;8.68;3.90;;;20.50;99.90;;;;;;7392584;19;20015;-80
2022/08/25 01:04:44;;;;;;;5.35;3.85;;;20.50;99.90;;;;;;7392935;19;20010;-80
2022/08/25 01:07:11;;;;;;;6.63;4.25;;;20.40;99.90;;;;;;7392941;19;20034;-80
2022/08/25 01:09:37;;;;;;;6.50;4.03;;;20.40;99.90;;;;;;7392472;19;20489;-80
2022/08/25 01:12:04;;;;;;;10.10;4.28;;;20.40;99.90;;;;;;7393238;19;20036;-80
2022/08/25 01:14:32;;;;;;;6.82;4.15;;;20.40;99.90;;;;;;7392466;19;20030;-80
2022/08/25 01:16:59;;;;;;;6.32;3.70;;;20.40;99.90;;;;;;7393715;19;20475;-80
2022/08/25 01:19:27;;;;;;;5.88;4.30;;;20.30;99.90;;;;;;7399519;19;20023;-79
2022/08/25 01:21:54;;;;;;;8.68;4.43;;;20.30;99.90;;;;;;7399646;19;20011;-79
2022/08/25 01:24:34;;;;;;;4.88;3.95;;;20.30;99.90;;;;;;7396660;19;20769;-80
2022/08/25 01:27:00;;;;;;;7.82;4.18;;;20.30;99.90;;;;;;7399372;19;20365;-80
2022/08/25 01:29:26;;;;;;;11.73;4.70;;;20.30;99.90;;;;;;7398181;19;20018;-79
2022/08/25 01:32:07;;;;;;;9.77;4.57;;;20.30;99.90;;;;;;7399273;19;20479;-79
2022/08/25 01:34:36;;;;;;;7.38;4.50;;;20.30;99.90;;;;;;7399740;19;20014;-79
2022/08/25 01:37:03;;;;;;;5.95;3.92;;;20.20;99.90;;;;;;7399459;19;20542;-80
2022/08/25 01:39:32;;;;;;;4.80;4.28;;;20.20;99.90;;;;;;7397596;19;20022;-80
2022/08/25 01:42:10;;;;;;;6.20;4.10;;;20.20;99.90;;;;;;7399411;19;20052;-79
2022/08/25 01:44:40;;;;;;;6.00;3.85;;;20.10;99.90;;;;;;7396010;19;20010;-80
2022/08/25 01:47:07;;;;;;;5.88;4.13;;;20.10;99.90;;;;;;7398827;19;20074;-80
2022/08/25 01:49:34;;;;;;;10.82;4.20;;;20.10;99.90;;;;;;7398234;19;20487;-80
2022/08/25 01:52:23;;;;;;;7.38;3.90;;;20.00;99.90;;;;;;7397233;19;20011;-79
2022/08/25 01:54:49;;;;;;;8.23;4.50;;;20.00;99.90;;;;;;7398478;19;20018;-79
2022/08/25 01:57:15;;;;;;;6.97;4.28;;;20.00;99.90;;;;;;7398948;19;20010;-80
2022/08/25 01:59:41;;;;;;;6.50;4.40;;;20.00;99.90;;;;;;7398363;19;20429;-80
2022/08/25 02:02:07;;;;;;;8.20;4.45;;;20.00;99.90;;;;;;7398313;19;20487;-79
2022/08/25 02:04:34;;;;;;;5.38;4.28;;;19.90;99.90;;;;;;7396119;19;20015;-79
2022/08/25 02:07:01;;;;;;;7.90;4.30;;;19.90;99.90;;;;;;7398290;19;20018;-80
2022/08/25 02:09:28;;;;;;;5.30;4.28;;;19.90;99.90;;;;;;7396470;19;20485;-80
2022/08/25 02:11:54;;;;;;;7.78;4.43;;;19.90;99.90;;;;;;7400729;19;20029;-80
2022/08/25 02:14:19;;;;;;;6.20;4.07;;;19.80;99.90;;;;;;7398296;19;20010;-80
2022/08/25 02:16:49;;;;;;;6.32;4.30;;;19.80;99.90;;;;;;7396989;19;20041;-80
2022/08/25 02:19:16;;;;;;;7.80;4.55;;;19.80;99.90;;;;;;7397382;19;20010;-79
2022/08/25 02:21:43;;;;;;;9.75;4.50;;;19.80;99.90;;;;;;7397674;19;20017;-80
2022/08/25 02:24:10;;;;;;;9.57;5.10;;;19.70;99.90;;;;;;7395772;19;20082;-80
2022/08/25 02:26:36;;;;;;;6.93;5.07;;;19.70;99.90;;;;;;7397612;19;20011;-79
2022/08/25 02:29:03;;;;;;;9.35;4.35;;;19.70;99.90;;;;;;7392831;19;20079;-80
2022/08/25 02:31:29;;;;;;;8.50;5.30;;;19.60;99.90;;;;;;7396010;19;20010;-80
2022/08/25 02:33:56;;;;;;;8.32;4.50;;;19.60;99.90;;;;;;7397638;19;20044;-80
2022/08/25 02:36:22;;;;;;;6.97;4.82;;;19.60;99.90;;;;;;7397096;19;20018;-80
2022/08/25 02:38:48;;;;;;;6.63;4.63;;;19.60;99.90;;;;;;7397245;19;20017;-80
2022/08/25 02:41:18;;;;;;;8.18;5.57;;;19.50;99.90;;;;;;7397157;19;20023;-80
2022/08/25 02:43:48;;;;;;;9.68;4.93;;;19.50;99.90;;;;;;7395533;19;20038;-79
2022/08/25 02:46:16;;;;;;;7.82;5.35;;;19.40;99.90;;;;;;7397042;19;20029;-80
2022/08/25 02:48:44;;;;;;;7.10;5.22;;;19.40;99.90;;;;;;7396763;19;20021;-80
2022/08/25 02:51:13;;;;;;;7.28;5.20;;;19.30;99.90;;;;;;7396541;19;20018;-80
2022/08/25 02:53:41;;;;;;;10.38;5.43;;;19.30;99.90;;;;;;7395024;19;20543;-80
2022/08/25 02:56:09;;;;;;;7.47;4.88;;;19.30;99.90;;;;;;7396877;19;20031;-80
2022/08/25 02:58:37;;;;;;;6.97;5.05;;;19.30;99.90;;;;;;7396460;19;20039;-80
2022/08/25 03:01:02;;;;;;;7.50;5.53;;;19.30;99.90;;;;;;7396508;19;20014;-80
2022/08/25 03:03:29;;;;;;;7.93;5.75;;;19.30;99.90;;;;;;7394110;19;20352;-80
2022/08/25 03:05:56;;;;;;;8.23;5.32;;;19.30;99.90;;;;;;7396228;19;20007;-80
2022/08/25 03:08:22;;;;;;;7.88;5.30;;;19.40;99.90;;;;;;7396368;19;20037;-80
2022/08/25 03:10:48;;;;;;;14.15;6.05;;;19.40;99.90;;;;;;7397752;19;20431;-80
2022/08/25 03:13:15;;;;;;;10.68;6.32;;;19.30;99.90;;;;;;7395259;19;20022;-80
2022/08/25 03:15:41;;;;;;;8.43;6.10;;;19.30;99.90;;;;;;7396092;19;20014;-79
2022/08/25 03:18:08;;;;;;;8.48;5.68;;;19.30;99.90;;;;;;7392786;19;20520;-80
2022/08/25 03:20:34;;;;;;;6.35;5.50;;;19.30;99.90;;;;;;7395762;19;20015;-79
2022/08/25 03:23:01;;;;;;;9.10;5.78;;;19.20;99.90;;;;;;7394926;19;20010;-79
2022/08/25 03:28:13;;;;;;;10.43;6.07;;;19.20;99.90;;;;;;7394607;19;20006;-79
2022/08/25 03:30:40;;;;;;;10.27;6.00;;;19.10;99.90;;;;;;7395570;19;20029;-79
2022/08/25 03:33:06;;;;;;;10.48;6.28;;;19.10;99.90;;;;;;7393667;19;20521;-79
2022/08/25 03:35:32;;;;;;;7.38;6.28;;;19.10;99.90;;;;;;7395701;19;20010;-79
2022/08/25 03:38:00;;;;;;;10.07;6.10;;;19.10;99.90;;;;;;7395149;19;20138;-80
2022/08/25 03:40:29;;;;;;;8.77;5.97;;;19.10;99.90;;;;;;7393424;19;20629;-79
2022/08/25 03:42:55;;;;;;;9.55;6.53;;;19.10;99.90;;;;;;7392803;19;20475;-80
2022/08/25 03:45:22;;;;;;;9.70;6.63;;;19.10;99.90;;;;;;7396427;19;20021;-79
2022/08/25 03:47:50;;;;;;;8.82;6.30;;;19.10;99.90;;;;;;7395271;19;20021;-79
2022/08/25 03:50:19;;;;;;;9.60;6.85;;;19.10;99.90;;;;;;7393955;19;20479;-80
2022/08/25 03:52:50;;;;;;;11.70;6.32;;;19.10;99.90;;;;;;7393040;19;20086;-80
2022/08/25 03:55:16;;;;;;;8.20;6.65;;;19.10;99.90;;;;;;7394824;19;20034;-79
2022/08/25 03:57:42;;;;;;;9.20;6.57;;;19.10;99.90;;;;;;7394410;19;20010;-79
2022/08/25 04:00:10;;;;;;;10.05;7.03;;;19.10;99.90;;;;;;7395053;19;20014;-80
2022/08/25 04:02:36;;;;;;;11.73;6.70;;;19.10;99.90;;;;;;7394127;19;20014;-79
2022/08/25 04:05:03;;;;;;;9.52;6.65;;;19.10;99.90;;;;;;7394043;19;20019;-79
2022/08/25 04:07:28;;;;;;;9.40;6.85;;;19.00;99.90;;;;;;7392546;19;20043;-80
2022/08/25 04:09:55;;;;;;;9.43;7.20;;;19.00;99.90;;;;;;7394471;19;20014;-79
2022/08/25 04:12:21;;;;;;;8.68;5.88;;;19.00;99.90;;;;;;7393993;19;20018;-79
2022/08/25 04:14:48;;;;;;;11.15;6.90;;;19.00;99.90;;;;;;7394363;19;20014;-80
2022/08/25 04:17:14;;;;;;;9.48;7.00;;;19.10;99.90;;;;;;7392694;19;20040;-80
2022/08/25 04:19:40;;;;;;;9.93;7.20;;;19.10;99.90;;;;;;7391595;19;20011;-79
2022/08/25 04:22:06;;;;;;;12.85;7.07;;;19.00;99.90;;;;;;7393481;19;20010;-79
2022/08/25 04:24:32;;;;;;;12.13;7.22;;;19.00;99.90;;;;;;7392406;19;20034;-79
2022/08/25 04:26:58;;;;;;;12.85;7.18;;;19.00;99.90;;;;;;7392224;19;20118;-80
2022/08/25 04:29:25;;;;;;;10.48;7.00;;;19.00;99.90;;;;;;7393438;19;20026;-79
2022/08/25 04:31:53;;;;;;;12.50;7.70;;;18.90;99.90;;;;;;7393467;19;20014;-79
2022/08/25 04:34:22;;;;;;;10.23;7.18;;;18.90;99.90;;;;;;7393250;19;20014;-80
2022/08/25 04:36:49;;;;;;;11.82;7.25;;;18.90;99.90;;;;;;7393339;19;20348;-80
2022/08/25 04:39:19;;;;;;;12.65;7.78;;;18.90;99.90;;;;;;7392329;19;20011;-80
2022/08/25 04:41:45;;;;;;;12.00;7.32;;;18.80;99.90;;;;;;7393232;19;20038;-79
2022/08/25 04:44:11;;;;;;;13.93;7.93;;;18.90;99.90;;;;;;7392305;19;20007;-80
2022/08/25 04:46:37;;;;;;;14.15;8.13;;;18.80;99.90;;;;;;7392841;19;20014;-79
2022/08/25 04:49:04;;;;;;;9.50;7.90;;;18.80;99.90;;;;;;7391546;19;20102;-79
2022/08/25 04:51:35;;;;;;;11.90;8.05;;;18.80;99.90;;;;;;7393658;19;20014;-79
2022/08/25 04:54:04;;;;;;;9.27;8.00;;;18.80;99.90;;;;;;7402158;19;20011;-79
2022/08/25 04:56:32;;;;;;;10.45;8.23;;;18.80;99.90;;;;;;7400215;19;20458;-79
2022/08/25 04:59:03;;;;;;;10.07;7.80;;;18.80;99.90;;;;;;7399224;19;20017;-79
2022/08/25 05:01:28;;;;;;;12.02;8.45;;;18.80;99.90;;;;;;7398728;19;20011;-79
2022/08/25 05:03:58;;;;;;;11.93;7.65;;;18.80;99.90;;;;;;7398754;19;20018;-80
2022/08/25 05:06:24;;;;;;;11.48;8.60;;;18.80;99.90;;;;;;7400131;19;20055;-79
2022/08/25 05:08:50;;;;;;;11.70;8.60;;;18.80;99.90;;;;;;7400282;19;20069;-79
2022/08/25 05:11:18;;;;;;;13.93;8.93;;;18.80;99.90;;;;;;7398477;19;20010;-80
2022/08/25 05:13:49;;;;;;;11.15;8.07;;;18.80;99.90;;;;;;7400393;19;20333;-80
2022/08/25 05:16:16;;;;;;;12.82;8.95;;;18.80;99.90;;;;;;7399802;19;20018;-79
2022/08/25 05:18:42;;;;;;;13.65;8.82;;;18.80;99.90;;;;;;7397852;19;20014;-79
2022/08/25 05:21:11;;;;;;;12.13;9.10;;;18.80;99.90;;;;;;7399113;19;20037;-79
2022/08/25 05:23:38;;;;;;;11.80;8.57;;;18.90;99.90;;;;;;7397147;19;20025;-79
2022/08/25 05:26:07;;;;;;;16.10;9.27;;;18.90;99.90;;;;;;7398038;19;20019;-79
2022/08/25 05:28:33;;;;;;;13.10;9.35;;;18.90;99.90;;;;;;7395949;19;20021;-79
2022/08/25 05:31:01;;;;;;;12.02;9.52;;;19.00;99.90;;;;;;7397943;19;20359;-79
2022/08/25 05:33:27;;;;;;;12.38;8.80;;;18.90;99.90;;;;;;7398238;19;20482;-79
2022/08/25 05:35:52;;;;;;;13.60;9.00;;;19.00;99.90;;;;;;7399599;19;20007;-79
2022/08/25 05:38:18;;;;;;;12.68;9.32;;;19.00;99.90;;;;;;7397365;19;20014;-79
2022/08/25 05:40:44;;;;;;;15.13;9.57;;;19.00;99.90;;;;;;7397394;19;20014;-79
2022/08/25 05:43:11;;;;;;;13.32;8.48;;;19.10;99.90;;;;;;7396517;19;20015;-79
2022/08/25 05:45:38;;;;;;;13.73;9.60;;;19.20;99.90;;;;;;7399063;19;20030;-79
2022/08/25 05:48:03;;;;;;;13.40;9.55;;;19.20;99.90;;;;;;7398837;19;20014;-79
2022/08/25 05:50:29;;;;;;;14.40;9.00;;;19.40;99.90;;;;;;7397036;19;20021;-80
2022/08/25 05:52:56;;;;;;;11.35;9.15;;;19.40;99.90;;;;;;7397451;19;20022;-79
2022/08/25 05:55:22;;;;;;;12.18;9.27;;;19.50;99.90;;;;;;7398120;19;20011;-79
2022/08/25 05:57:48;;;;;;;11.07;8.65;;;19.60;99.90;;;;;;7398538;19;20027;-79
2022/08/25 06:00:16;;;;;;;15.55;9.02;;;19.70;99.90;;;;;;7399032;19;20085;-80
2022/08/25 06:02:47;;;;;;;13.00;9.23;;;19.70;99.90;;;;;;7396689;19;20030;-79
2022/08/25 06:05:17;;;;;;;15.30;9.30;;;19.60;99.90;;;;;;7397270;19;20370;-79
2022/08/25 06:07:45;;;;;;;14.45;8.77;;;19.60;99.90;;;;;;7399504;19;20014;-79
2022/08/25 06:10:12;;;;;;;10.68;8.98;;;19.50;99.90;;;;;;7398112;19;20043;-79
2022/08/25 06:12:40;;;;;;;12.63;9.35;;;19.60;99.90;;;;;;7398227;19;20007;-79
2022/08/25 06:15:06;;;;;;;11.68;9.00;;;19.60;99.90;;;;;;7398243;19;20092;-79
2022/08/25 06:17:34;;;;;;;13.02;9.90;;;19.60;99.90;;;;;;7395007;19;20494;-79
2022/08/25 06:20:01;;;;;;;13.75;9.40;;;19.70;99.90;;;;;;7395738;19;20376;-79
2022/08/25 06:22:27;;;;;;;12.02;9.80;;;19.70;99.90;;;;;;7398056;19;20019;-79
2022/08/25 06:24:53;;;;;;;13.70;9.73;;;19.80;99.90;;;;;;7397831;19;20018;-79
2022/08/25 06:27:20;;;;;;;14.55;10.13;;;19.80;99.90;;;;;;7396713;19;20030;-79
2022/08/25 06:29:45;;;;;;;13.25;9.07;;;19.90;99.90;;;;;;7396093;19;20047;-79
2022/08/25 06:32:11;;;;;;;14.10;10.05;;;20.00;99.90;;;;;;7395563;19;20014;-79
2022/08/25 06:34:37;;;;;;;13.20;10.25;;;20.10;99.90;;;;;;7395420;19;20010;-79
2022/08/25 06:37:03;;;;;;;13.43;10.35;;;20.10;99.90;;;;;;7396941;19;20074;-79
2022/08/25 06:39:29;;;;;;;21.33;10.00;;;20.20;99.90;;;;;;7397969;19;20329;-79
2022/08/25 06:41:56;;;;;;;14.63;9.85;;;20.30;99.90;;;;;;7397185;19;20022;-79
2022/08/25 06:44:23;;;;;;;12.77;10.40;;;20.40;99.90;;;;;;7395532;19;20038;-79
2022/08/25 06:46:49;;;;;;;14.93;10.07;;;20.50;99.90;;;;;;7395865;19;20015;-79
2022/08/25 06:49:16;;;;;;;13.30;10.18;;;20.60;99.90;;;;;;7394895;19;20027;-80
2022/08/25 06:51:41;;;;;;;12.65;8.52;;;20.60;99.90;;;;;;7397226;19;20018;-80
2022/08/25 06:54:09;;;;;;;14.70;9.00;;;20.80;99.90;;;;;;7395254;19;20019;-80
2022/08/25 06:56:37;;;;;;;14.82;9.48;;;20.90;99.90;;;;;;7395755;19;20019;-80
2022/08/25 06:59:05;;;;;;;16.27;9.68;;;21.00;99.90;;;;;;7396816;19;20007;-80
2022/08/25 07:01:32;;;;;;;13.63;9.73;;;21.10;99.90;;;;;;7394992;19;20021;-79
2022/08/25 07:04:00;;;;;;;14.77;9.18;;;21.20;99.90;;;;;;7393283;19;20018;-80
2022/08/25 07:06:29;;;;;;;15.38;8.48;;;21.30;99.90;;;;;;7397216;19;20026;-79
2022/08/25 07:08:59;;;;;;;12.65;8.50;;;21.50;99.90;;;;;;7396040;19;20488;-80
2022/08/25 07:11:25;;;;;;;12.35;8.77;;;22.20;99.90;;;;;;7396123;19;20013;-79
2022/08/25 07:13:51;;;;;;;12.90;8.90;;;22.80;99.90;;;;;;7394316;19;20014;-79
2022/08/25 07:16:19;;;;;;;13.13;8.82;;;23.10;99.90;;;;;;7395122;19;20018;-79
2022/08/25 07:18:49;;;;;;;11.55;9.10;;;23.20;99.90;;;;;;7392398;19;20026;-80
2022/08/25 07:21:15;;;;;;;13.20;9.02;;;23.00;99.90;;;;;;7395715;19;20011;-80
2022/08/25 07:23:41;;;;;;;12.00;8.30;;;23.10;99.90;;;;;;7393285;19;20520;-79
2022/08/25 07:26:10;;;;;;;10.70;8.52;;;23.60;99.90;;;;;;7395643;19;20006;-80
2022/08/25 07:28:37;;;;;;;10.85;8.27;;;25.00;99.90;;;;;;7392203;19;20010;-79
2022/08/25 07:31:04;;;;;;;12.45;8.75;;;25.90;99.90;;;;;;7395034;19;20047;-79
2022/08/25 07:33:30;;;;;;;10.02;7.88;;;26.30;99.90;;;;;;7395192;19;20014;-79
2022/08/25 07:35:56;;;;;;;12.23;7.75;;;26.80;99.90;;;;;;7393978;19;20006;-79
2022/08/25 07:38:22;;;;;;;11.38;7.75;;;27.50;99.90;;;;;;7395124;19;20018;-79
2022/08/25 07:40:53;;;;;;;9.95;7.30;;;27.40;99.90;;;;;;7394970;19;20014;-80
2022/08/25 07:43:21;;;;;;;13.65;7.82;;;27.90;99.90;;;;;;7394110;19;20353;-80
2022/08/25 07:45:47;;;;;;;11.82;7.50;;;28.10;99.90;;;;;;7394629;19;20014;-80
2022/08/25 07:48:15;;;;;;;11.63;7.10;;;28.30;99.90;;;;;;7395125;19;20006;-80
2022/08/25 07:50:46;;;;;;;9.57;6.85;;;28.40;99.90;;;;;;7394481;19;20017;-80
2022/08/25 07:53:14;;;;;;;12.68;7.15;;;28.60;99.90;;;;;;7393500;19;20034;-80
2022/08/25 07:55:41;;;;;;;9.68;6.55;;;28.40;99.90;;;;;;7394417;19;20018;-80
2022/08/25 07:58:09;;;;;;;10.43;6.95;;;28.50;99.80;;;;;;7394418;19;20487;-80
2022/08/25 08:00:36;;;;;;;10.32;6.82;;;28.50;99.90;;;;;;7394836;19;20031;-79
2022/08/25 08:03:07;;;;;;;8.88;6.38;;;28.40;99.40;;;;;;7394359;19;20015;-80
2022/08/25 08:05:33;;;;;;;9.18;6.28;;;28.50;99.90;;;;;;7395860;19;20010;-80
2022/08/25 08:07:59;;;;;;;8.60;6.30;;;28.90;99.70;;;;;;7394407;19;20043;-80
2022/08/25 08:10:25;;;;;;;9.15;6.90;;;29.00;99.50;;;;;;7392692;19;20446;-79
2022/08/25 08:12:52;;;;;;;12.52;6.55;;;28.80;98.90;;;;;;7393713;19;20507;-80
2022/08/25 08:15:18;;;;;;;8.85;5.95;;;28.60;99.10;;;;;;7394095;19;20014;-79
2022/08/25 08:17:45;;;;;;;10.30;7.20;;;28.70;99.10;;;;;;7392880;19;20025;-80
2022/08/25 08:20:12;;;;;;;9.93;6.70;;;28.50;99.20;;;;;;7393512;19;20035;-80
2022/08/25 08:22:41;;;;;;;9.20;7.22;;;28.50;99.50;;;;;;7394278;19;20011;-80
2022/08/25 08:25:09;;;;;;;11.27;7.70;;;28.60;99.60;;;;;;7394414;19;20340;-79
2022/08/25 08:27:36;;;;;;;11.30;7.43;;;28.40;99.20;;;;;;7391532;19;20013;-80
2022/08/25 08:30:04;;;;;;;13.23;7.00;;;28.20;99.60;;;;;;7391677;19;20011;-80
2022/08/25 08:32:30;;;;;;;10.57;6.90;;;27.70;99.70;;;;;;7391763;19;20451;-80
2022/08/25 08:34:56;;;;;;;8.02;6.05;;;27.20;99.90;;;;;;7393403;19;20010;-80
2022/08/25 08:37:22;;;;;;;11.35;8.48;;;27.00;99.90;;;;;;7391644;19;20021;-80
2022/08/25 08:39:50;;;;;;;9.30;7.78;;;26.70;99.90;;;;;;7393298;19;20006;-81
2022/08/25 08:42:47;;;;;;;12.95;7.78;;;26.50;99.90;;;;;;7393703;19;20017;-79
2022/08/25 08:45:25;;;;;;;12.50;7.85;;;26.50;99.90;;;;;;7393298;19;20015;-80
2022/08/25 08:48:09;;;;;;;10.75;7.90;;;26.40;99.90;;;;;;7393305;19;20798;-80
2022/08/25 08:51:00;;;;;;;11.57;7.50;;;26.50;99.90;;;;;;7392900;19;20038;-80
2022/08/25 08:53:47;;;;;;;9.07;6.13;;;26.50;99.90;;;;;;7393221;19;20010;-80
2022/08/25 08:56:30;;;;;;;11.85;7.18;;;26.50;99.90;;;;;;7393167;19;20499;-79
2022/08/25 08:59:04;;;;;;;11.97;7.80;;;26.60;99.90;;;;;;7392666;19;20038;-79
2022/08/25 09:01:45;;;;;;;10.82;7.53;;;26.80;99.90;;;;;;7391380;19;20015;-80
2022/08/25 09:04:20;;;;;;;10.98;6.95;;;26.80;99.90;;;;;;7392032;19;20010;-79
2022/08/25 09:06:48;;;;;;;12.98;7.70;;;26.90;99.90;;;;;;7390650;19;20038;-79
2022/08/25 09:09:27;;;;;;;9.50;7.18;;;26.90;99.90;;;;;;7390835;19;20037;-80
2022/08/25 09:12:11;;;;;;;15.95;7.43;;;26.90;99.90;;;;;;7392786;19;20061;-80
2022/08/25 09:15:00;;;;;;;10.27;7.72;;;26.90;99.90;;;;;;7392522;19;20037;-80
2022/08/25 09:17:49;;;;;;;10.77;6.32;;;27.00;99.90;;;;;;7390955;19;20010;-79
2022/08/25 09:20:40;;;;;;;8.40;6.63;;;27.10;99.90;;;;;;7391815;19;20027;-80
2022/08/25 09:23:12;;;;;;;11.23;6.88;;;27.10;99.90;;;;;;7392058;19;20014;-80
2022/08/25 09:25:37;;;;;;;9.48;6.07;;;27.20;99.90;;;;;;7391906;19;20425;-80
2022/08/25 09:28:20;;;;;;;8.38;5.57;;;27.30;99.90;;;;;;7390768;19;20015;-80
2022/08/25 09:30:51;;;;;;;10.27;6.00;;;27.40;99.90;;;;;;7391952;19;20018;-80
2022/08/25 09:33:21;;;;;;;7.78;5.75;;;27.50;99.90;;;;;;7391718;19;20795;-80
2022/08/25 09:35:50;;;;;;;9.00;5.70;;;27.60;99.90;;;;;;7392056;19;20018;-80
2022/08/25 09:38:18;;;;;;;9.95;5.47;;;27.60;99.90;;;;;;7394703;19;20011;-79
2022/08/25 09:40:50;;;;;;;6.82;5.47;;;27.70;99.90;;;;;;7399366;19;20024;-80
2022/08/25 09:43:30;;;;;;;;;;;27.90;99.90;;;;;;7397374;19;20069;-80
2022/08/25 09:46:01;;;;;;;9.85;5.75;;;28.00;99.90;;;;;;7399500;19;19918;-80
2022/08/25 09:48:27;;;;;;;7.38;5.15;;;28.00;99.90;;;;;;7398676;19;20031;-80
2022/08/25 09:50:59;;;;;;;8.95;5.50;;;28.00;99.90;;;;;;7398292;19;20015;-80
2022/08/25 09:53:27;;;;;;;8.30;5.07;;;28.10;99.30;;;;;;7398628;19;20033;-80
2022/08/25 09:56:03;;;;;;;8.50;5.25;;;28.10;99.60;;;;;;7398603;19;20019;-80
2022/08/25 09:58:30;;;;;;;13.50;5.60;;;28.20;99.20;;;;;;7398365;19;20014;-81
2022/08/25 10:01:12;;;;;;;9.52;5.05;;;28.30;99.30;;;;;;7398857;19;20033;-80
2022/08/25 10:03:56;;;;;;;9.43;4.85;;;28.30;99.00;;;;;;7398602;19;20038;-80
2022/08/25 10:06:22;;;;;;;;;;;28.40;99.20;;;;;;7397140;19;20359;-80
2022/08/25 10:08:48;;;;;;;11.18;5.50;;;28.50;99.80;;;;;;7398419;19;20301;-80
2022/08/25 10:11:32;;;;;;;5.72;4.32;;;28.70;99.00;;;;;;7396524;19;20551;-80
2022/08/25 10:14:22;;;;;;;6.13;4.32;;;28.90;99.40;;;;;;7398420;19;20022;-80
2022/08/25 10:16:48;;;;;;;8.82;5.15;;;28.80;98.90;;;;;;7397687;19;20356;-80
2022/08/25 10:19:20;;;;;;;9.05;4.38;;;28.90;98.60;;;;;;7395113;19;20014;-80
2022/08/25 10:22:11;;;;;;;9.90;5.10;;;28.90;98.10;;;;;;7397590;19;20052;-80
2022/08/25 10:24:39;;;;;;;8.02;4.43;;;28.90;97.50;;;;;;7395860;19;20022;-80
2022/08/25 10:27:08;;;;;;;7.05;4.22;;;28.90;97.90;;;;;;7397077;19;20081;-81
2022/08/25 10:29:46;;;;;;;8.45;4.50;;;29.00;97.50;;;;;;7397455;19;20082;-80
2022/08/25 10:32:15;;;;;;;8.98;5.40;;;29.00;97.70;;;;;;7395951;19;20015;-80
2022/08/25 10:34:52;;;;;;;11.23;5.25;;;29.00;98.00;;;;;;7396407;19;20016;-80
2022/08/25 10:37:43;;;;;;;10.98;5.10;;;29.00;97.80;;;;;;7397669;19;20483;-80
2022/08/25 10:40:38;;;;;;;5.35;4.40;;;29.00;97.80;;;;;;7395591;19;20014;-79
2022/08/25 10:43:06;;;;;;;8.07;4.15;;;29.10;97.30;;;;;;7396882;19;20010;-79
2022/08/25 10:46:02;;;;;;;7.63;4.75;;;29.00;97.20;;;;;;7395767;19;20074;-80
2022/08/25 10:48:54;;;;;;;8.52;4.35;;;29.10;97.10;;;;;;7396836;19;20003;-79
2022/08/25 10:52:02;;;;;;;9.52;4.82;;;29.10;97.00;;;;;;7395512;19;20424;-80
2022/08/25 10:55:00;;;;;;;6.68;4.72;;;29.30;97.60;;;;;;7394827;19;20460;-80
2022/08/25 10:57:29;;;;;;;6.28;4.53;;;29.40;97.30;;;;;;7396432;19;20006;-79
2022/08/25 11:00:13;;;;;;;7.68;4.80;;;29.50;97.10;;;;;;7396694;19;20038;-80
2022/08/25 11:03:11;;;;;;;7.30;4.53;;;29.60;97.20;;;;;;7396410;19;20074;-80
2022/08/25 11:05:51;;;;;;;7.25;5.07;;;29.60;96.90;;;;;;7396135;19;20494;-80
2022/08/25 11:08:23;;;;;;;7.65;4.25;;;29.70;97.20;;;;;;7394548;19;20490;-79
2022/08/25 11:10:56;;;;;;;8.73;4.80;;;29.70;97.00;;;;;;7394530;19;20011;-80
2022/08/25 11:13:30;;;;;;;;;;;29.60;96.60;;;;;;7395410;19;20487;-80
2022/08/25 11:16:12;;;;;;;6.85;4.20;;;29.70;97.30;;;;;;7396128;19;19923;-80
2022/08/25 11:18:46;;;;;;;8.10;4.47;;;29.80;97.10;;;;;;7394939;19;20015;-80
2022/08/25 11:21:19;;;;;;;6.03;4.55;;;30.00;96.70;;;;;;7395465;19;20034;-79
2022/08/25 11:24:16;;;;;;;5.05;4.50;;;30.10;96.90;;;;;;7395061;19;20006;-79
2022/08/25 11:26:50;;;;;;;6.70;4.82;;;30.10;96.10;;;;;;7394075;19;20014;-80
2022/08/25 11:29:20;;;;;;;8.35;4.78;;;30.00;96.40;;;;;;7395375;19;20018;-80
2022/08/25 11:31:51;;;;;;;6.65;4.30;;;30.00;96.70;;;;;;7395777;19;20011;-80
2022/08/25 11:34:17;;;;;;;6.32;3.80;;;30.10;96.30;;;;;;7394169;19;20028;-80
2022/08/25 11:37:17;;;;;;;6.65;4.03;;;30.00;95.70;;;;;;7395143;19;20007;-79
2022/08/25 11:40:01;;;;;;;7.65;3.78;;;30.00;96.30;;;;;;7395493;19;20114;-81
2022/08/25 11:42:44;;;;;;;6.55;3.35;;;30.00;95.50;;;;;;7394904;19;20018;-80
2022/08/25 11:45:29;;;;;;;;;;;29.90;94.90;;;;;;7395402;19;20018;-80
2022/08/25 11:48:39;;;;;;;6.20;3.47;;;30.00;94.70;;;;;;7395386;19;19926;-80
2022/08/25 11:51:06;;;;;;;6.60;3.42;;;30.10;95.10;;;;;;7394024;19;20018;-80
2022/08/25 11:53:43;;;;;;;7.72;3.47;;;30.00;94.10;;;;;;7394453;19;20361;-79
2022/08/25 11:56:30;;;;;;;5.82;3.47;;;30.10;93.90;;;;;;7394942;19;20022;-80
2022/08/25 11:58:56;;;;;;;5.13;3.60;;;30.10;94.00;;;;;;7393176;19;20010;-80
2022/08/25 12:01:38;;;;;;;6.15;3.63;;;30.10;94.40;;;;;;7396559;19;20018;-80
2022/08/25 12:04:32;;;;;;;7.15;3.60;;;30.30;94.60;;;;;;7393343;19;20022;-80
2022/08/25 12:07:09;;;;;;;6.30;3.60;;;30.30;93.60;;;;;;7394157;19;20014;-79
2022/08/25 12:09:50;;;;;;;5.72;3.13;;;30.30;93.10;;;;;;7393982;19;20014;-80
2022/08/25 12:12:55;;;;;;;3.95;3.53;;;30.30;93.00;;;;;;7392280;19;20523;-79
2022/08/25 12:15:24;;;;;;;8.05;3.72;;;30.00;92.40;;;;;;7392130;19;20006;-80
2022/08/25 12:18:13;;;;;;;4.97;3.15;;;30.00;92.80;;;;;;7393291;19;20044;-80
2022/08/25 12:20:56;;;;;;;4.80;3.08;;;30.20;93.00;;;;;;7393305;19;20010;-80
2022/08/25 12:23:44;;;;;;;5.28;3.30;;;30.10;92.40;;;;;;7393630;19;20034;-79
2022/08/25 12:26:13;;;;;;;4.18;3.00;;;30.20;93.00;;;;;;7394233;19;20070;-80
2022/08/25 12:28:39;;;;;;;5.60;3.40;;;30.20;92.30;;;;;;7392197;19;20010;-80
2022/08/25 12:31:16;;;;;;;5.57;3.30;;;30.30;92.40;;;;;;7393766;19;20037;-80
2022/08/25 12:33:48;;;;;;;4.13;3.20;;;30.30;92.00;;;;;;7393861;19;20049;-80
2022/08/25 12:36:27;;;;;;;9.50;3.27;;;30.40;93.10;;;;;;7393326;19;20487;-80
2022/08/25 12:38:53;;;;;;;5.20;3.35;;;30.40;92.70;;;;;;7392204;19;20006;-80
2022/08/25 12:41:26;;;;;;;5.75;3.65;;;30.40;92.40;;;;;;7393248;19;20487;-80
2022/08/25 12:44:07;;;;;;;7.75;3.28;;;30.40;93.00;;;;;;7392414;19;20015;-80
2022/08/25 12:46:38;;;;;;;5.22;3.40;;;30.50;92.60;;;;;;7393021;19;20074;-80
2022/08/25 12:49:33;;;;;;;5.53;3.38;;;30.50;91.60;;;;;;7393189;19;20037;-80
2022/08/25 12:52:22;;;;;;;7.18;3.47;;;30.50;91.40;;;;;;7393046;19;20046;-80
2022/08/25 12:54:53;;;;;;;4.47;3.35;;;30.40;91.40;;;;;;7392667;19;20491;-80
2022/08/25 12:57:36;;;;;;;6.30;3.72;;;30.40;91.70;;;;;;7392623;19;20006;-80
2022/08/25 13:00:23;;;;;;;7.20;3.28;;;30.40;91.40;;;;;;7393748;19;20011;-80
2022/08/25 13:03:24;;;;;;;6.97;3.30;;;30.40;91.50;;;;;;7392871;19;20023;-81
2022/08/25 13:06:05;;;;;;;4.20;3.10;;;30.30;91.00;;;;;;7391206;19;20011;-80